Time;durP1;ratioP1;P1;durP2;ratioP2;P2;SDS_P1;SDS_P2;PMS_P1;PMS_P2;Temp;Humidity;BMP_temperature;BMP_pressure;BME280_temperature;BME280_humidity;BME280_pressure;Samples;Min_cycle;Max_cycle;Signal;HPM_P1;HPM_P2
2022/01/06 00:02:08;;;;;;;11.38;3.80;;;;;;;1.52;90.18;97925.41;4149644;85;21631;-89
2022/01/06 00:08:10;;;;;;;9.80;3.65;;;;;;;1.56;90.06;97934.41;4145250;84;21115;-88
2022/01/06 00:26:53;;;;;;;10.50;3.75;;;;;;;1.67;89.90;97926.61;4143445;85;21011;-89
2022/01/06 00:32:54;;;;;;;12.75;4.10;;;;;;;1.68;89.58;97912.02;4141679;85;21583;-89
2022/01/06 00:38:56;;;;;;;9.20;3.80;;;;;;;1.72;89.80;97918.28;4142085;85;21053;-89
2022/01/06 00:44:58;;;;;;;9.63;3.47;;;;;;;1.76;89.76;97933.98;4141508;84;21103;-93
2022/01/06 00:51:01;;;;;;;9.48;3.05;;;;;;;1.80;89.54;97946.48;4144045;86;21058;-92
2022/01/06 00:57:02;;;;;;;10.35;3.15;;;;;;;1.81;89.39;97953.44;4142042;85;21071;-91
2022/01/06 01:03:14;;;;;;;9.83;2.90;;;;;;;1.85;89.18;97945.45;4141777;84;21071;-89
2022/01/06 01:09:16;;;;;;;7.70;2.83;;;;;;;1.88;88.81;97933.38;4116387;85;21107;-89
2022/01/06 01:15:23;;;;;;;6.53;2.83;;;;;;;1.90;88.82;97929.78;4143257;85;21616;-92
2022/01/06 01:21:22;;;;;;;5.58;2.72;;;;;;;1.92;88.68;97938.88;4142188;84;21122;-89
2022/01/06 01:27:27;;;;;;;11.70;3.00;;;;;;;1.90;88.67;97943.28;4145584;84;21527;-90
2022/01/06 01:33:30;;;;;;;5.72;2.70;;;;;;;1.90;88.15;97935.18;4143009;86;21056;-89
2022/01/06 01:39:31;;;;;;;8.20;2.77;;;;;;;1.93;87.96;97921.00;4143541;84;20986;-89
2022/01/06 01:45:34;;;;;;;6.85;2.87;;;;;;;1.95;87.94;97927.40;4142917;85;21579;-90
2022/01/06 01:51:35;;;;;;;8.05;2.60;;;;;;;1.95;87.95;97928.75;4142898;85;21039;-89
2022/01/06 01:57:43;;;;;;;7.42;2.62;;;;;;;1.93;87.73;97922.93;4142496;84;21635;-89
2022/01/06 02:03:49;;;;;;;10.32;2.80;;;;;;;1.92;87.74;97919.99;4142044;84;21565;-90
2022/01/06 02:09:50;;;;;;;6.33;2.33;;;;;;;1.90;87.50;97922.24;4104693;85;21058;-90
2022/01/06 02:15:52;;;;;;;7.42;2.77;;;;;;;1.87;87.58;97926.98;4081566;86;21129;-89
2022/01/06 02:21:53;;;;;;;7.03;3.05;;;;;;;1.77;87.88;97940.98;4080049;86;21109;-90
2022/01/06 02:28:00;;;;;;;7.03;2.80;;;;;;;1.65;87.82;97943.14;4079320;87;21073;-89
2022/01/06 02:34:05;;;;;;;7.30;2.83;;;;;;;1.49;88.09;97949.02;4057738;86;21164;-89
2022/01/06 02:40:13;;;;;;;6.30;2.90;;;;;;;1.40;88.60;97951.06;4001099;88;21601;-88
2022/01/06 02:46:14;;;;;;;5.03;2.40;;;;;;;1.32;88.60;97957.36;4098634;86;21105;-89
2022/01/06 02:52:15;;;;;;;5.53;2.90;;;;;;;1.33;88.73;97949.52;4007469;87;21086;-89
2022/01/06 02:58:18;;;;;;;6.97;2.83;;;;;;;1.35;89.38;97937.25;4057076;86;21065;-89
2022/01/06 03:04:20;;;;;;;6.28;2.60;;;;;;;1.41;89.16;97943.19;4161487;84;21049;-90
2022/01/06 03:10:36;;;;;;;9.00;2.87;;;;;;;1.50;89.09;97950.02;4098804;85;21038;-90
2022/01/06 03:16:36;;;;;;;4.25;2.50;;;;;;;1.56;88.69;97941.94;4012574;87;21173;-89
2022/01/06 03:22:37;;;;;;;4.83;2.37;;;;;;;1.60;88.75;97950.11;4098728;85;21093;-89
2022/01/06 03:28:42;;;;;;;5.70;2.17;;;;;;;1.63;88.74;97944.83;4079654;86;21656;-88
2022/01/06 03:34:46;;;;;;;4.65;2.00;;;;;;;1.68;88.44;97955.17;4014921;87;21169;-89
2022/01/06 03:40:51;;;;;;;7.87;2.35;;;;;;;1.73;87.73;97938.72;4081360;86;21025;-89
2022/01/06 03:46:55;;;;;;;5.67;2.10;;;;;;;1.73;88.13;97950.86;4058414;86;21014;-90
2022/01/06 03:52:57;;;;;;;11.43;2.83;;;;;;;1.76;88.09;97951.53;4058637;86;20998;-90
2022/01/06 03:59:04;;;;;;;6.70;2.40;;;;;;;1.79;88.02;97951.64;4162083;84;21026;-90
2022/01/06 04:05:07;;;;;;;5.20;2.08;;;;;;;1.81;87.87;97943.20;4162943;84;21151;-91
2022/01/06 04:11:14;;;;;;;6.78;1.90;;;;;;;1.84;87.92;97952.75;4166375;84;21116;-90
2022/01/06 04:17:20;;;;;;;5.17;1.77;;;;;;;1.88;87.84;97959.60;4118118;84;1819035;-89
2022/01/06 04:23:21;;;;;;;8.00;2.05;;;;;;;1.93;87.73;97970.16;4165463;84;21050;-90
2022/01/06 04:29:23;;;;;;;7.53;1.98;;;;;;;1.98;87.64;97973.94;4164115;84;21073;-90
2022/01/06 04:35:25;;;;;;;6.28;1.70;;;;;;;2.02;87.50;97981.01;4167773;84;21125;-90
2022/01/06 04:41:26;;;;;;;4.70;1.77;;;;;;;2.06;87.29;97977.86;4166927;84;21063;-90
2022/01/06 04:47:29;;;;;;;6.05;1.60;;;;;;;2.08;87.40;97986.97;4145559;84;21924;-88
2022/01/06 04:53:32;;;;;;;6.72;1.85;;;;;;;2.10;87.27;97987.41;4157404;84;21136;-88
2022/01/06 04:59:34;;;;;;;4.80;1.90;;;;;;;2.13;87.17;98003.69;4161596;84;22397;-89
2022/01/06 05:05:35;;;;;;;6.55;2.27;;;;;;;2.14;87.11;98000.44;4173790;84;21093;-88
2022/01/06 05:11:37;;;;;;;3.98;2.33;;;;;;;2.15;86.95;97995.25;4142641;84;21550;-90
2022/01/06 05:17:39;;;;;;;4.40;1.80;;;;;;;2.14;87.21;98009.33;4137435;84;21144;-89
2022/01/06 05:23:41;;;;;;;8.35;2.40;;;;;;;2.16;87.10;98011.69;4143139;84;21054;-89
2022/01/06 05:29:42;;;;;;;9.30;2.12;;;;;;;2.16;87.22;98016.50;4142959;84;21375;-88
2022/01/06 05:35:45;;;;;;;4.67;1.90;;;;;;;2.20;86.96;98016.61;4140625;84;21037;-89
2022/01/06 05:41:48;;;;;;;3.83;1.82;;;;;;;2.23;86.91;98022.67;4137916;84;21087;-89
2022/01/06 05:47:50;;;;;;;4.58;2.08;;;;;;;2.23;86.79;98023.46;4139575;84;21055;-89
2022/01/06 05:53:54;;;;;;;8.63;2.45;;;;;;;2.25;86.60;98021.21;4144654;84;21574;-89
2022/01/06 05:59:56;;;;;;;6.33;2.42;;;;;;;2.28;86.68;98027.83;4141899;84;21075;-89
2022/01/06 06:05:57;;;;;;;6.00;2.50;;;;;;;2.31;86.40;98036.59;4139177;84;21555;-89
2022/01/06 06:12:02;;;;;;;5.00;2.20;;;;;;;2.35;85.57;98037.49;4217284;83;21026;-88
2022/01/06 06:18:05;;;;;;;5.12;2.40;;;;;;;2.36;84.98;98038.50;4208896;84;21057;-88
2022/01/06 06:24:08;;;;;;;5.05;1.85;;;;;;;2.38;85.65;98039.50;4199441;84;21085;-90
2022/01/06 06:30:13;;;;;;;5.20;1.90;;;;;;;2.44;85.31;98045.67;4206972;84;21560;-88
2022/01/06 06:36:15;;;;;;;3.98;1.87;;;;;;;2.47;85.33;98049.03;4189548;84;21045;-89
2022/01/06 06:42:16;;;;;;;8.03;2.77;;;;;;;2.51;84.83;98055.30;4206218;84;21029;-90
2022/01/06 06:48:18;;;;;;;5.72;2.65;;;;;;;2.55;84.71;98060.22;4198887;84;21014;-89
2022/01/06 06:54:19;;;;;;;8.75;2.70;;;;;;;2.56;84.65;98066.42;4200596;84;21049;-89
2022/01/06 07:00:21;;;;;;;6.28;2.50;;;;;;;2.51;85.26;98066.11;4212741;84;21029;-89
2022/01/06 07:06:22;;;;;;;7.30;2.60;;;;;;;2.53;85.21;98080.63;4196040;82;21073;-89
2022/01/06 07:12:23;;;;;;;5.60;2.30;;;;;;;2.54;85.38;98085.68;4203563;84;21084;-90
2022/01/06 07:18:25;;;;;;;9.05;4.03;;;;;;;2.59;85.35;98095.45;4214364;83;21065;-89
2022/01/06 07:24:27;;;;;;;9.68;3.75;;;;;;;2.62;85.29;98099.61;4197718;84;21393;-88
2022/01/06 07:30:31;;;;;;;5.67;3.15;;;;;;;2.66;85.43;98109.94;4214731;84;21068;-89
2022/01/06 07:36:34;;;;;;;9.58;3.35;;;;;;;2.66;85.59;98107.82;4201324;84;21752;-88
2022/01/06 07:42:39;;;;;;;8.50;2.90;;;;;;;2.65;85.72;98116.48;4204227;82;21124;-90
2022/01/06 07:49:02;;;;;;;8.25;4.08;;;;;;;2.65;85.76;98134.05;4200447;84;21095;-89
2022/01/06 07:54:50;;;;;;;9.13;5.20;;;;;;;2.64;85.91;98137.89;4186683;82;21096;-89
2022/01/06 08:00:52;;;;;;;8.73;2.98;;;;;;;2.50;86.62;98144.24;4205506;83;21002;-89
2022/01/06 08:06:53;;;;;;;12.03;4.30;;;;;;;2.45;86.70;98141.77;4202399;82;21801;-90
2022/01/06 08:12:54;;;;;;;7.78;4.17;;;;;;;2.47;86.91;98138.73;4194678;84;21073;-90
2022/01/06 08:18:56;;;;;;;14.50;4.58;;;;;;;2.45;87.17;98151.78;4191721;84;21097;-91
2022/01/06 08:24:58;;;;;;;11.33;4.67;;;;;;;2.48;87.27;98153.24;4199997;84;21158;-87
2022/01/06 08:31:01;;;;;;;11.33;5.53;;;;;;;2.51;87.36;98159.31;4206100;84;21053;-89
2022/01/06 08:37:03;;;;;;;9.15;4.10;;;;;;;2.53;87.51;98169.22;4205679;84;22311;-91
2022/01/06 08:43:05;;;;;;;10.03;4.62;;;;;;;2.59;87.57;98180.01;4202141;84;21060;-89
2022/01/06 08:49:06;;;;;;;8.85;4.40;;;;;;;2.60;88.04;98184.27;4198350;84;21045;-89
2022/01/06 08:55:11;;;;;;;8.23;3.75;;;;;;;2.64;88.48;98189.78;4190438;84;21052;-89
2022/01/06 09:01:12;;;;;;;10.63;4.20;;;;;;;2.70;88.80;98187.06;4201805;84;22136;-88
2022/01/06 09:07:14;;;;;;;11.65;4.80;;;;;;;2.78;88.59;98181.53;4208090;83;21057;-89
2022/01/06 09:13:15;;;;;;;9.58;4.97;;;;;;;2.88;88.50;98190.48;4246050;83;22014;-89
2022/01/06 09:19:17;;;;;;;11.08;4.80;;;;;;;3.00;88.68;98199.92;4244050;83;21065;-90
2022/01/06 09:25:18;;;;;;;12.30;5.53;;;;;;;3.09;88.10;98200.55;4218872;83;21105;-90
2022/01/06 09:31:19;;;;;;;10.43;4.70;;;;;;;3.15;88.51;98199.72;4244450;83;21073;-91
2022/01/06 09:37:22;;;;;;;8.63;3.92;;;;;;;3.22;88.12;98203.98;4248240;83;21069;-89
2022/01/06 09:43:26;;;;;;;8.00;4.15;;;;;;;3.24;88.04;98204.44;4243950;83;22275;-88
2022/01/06 09:49:28;;;;;;;12.93;4.33;;;;;;;3.28;87.98;98203.16;4238706;83;21061;-93
2022/01/06 09:55:30;;;;;;;9.93;3.72;;;;;;;3.34;87.72;98202.56;4233338;83;21030;-90
2022/01/06 10:01:31;;;;;;;10.25;4.33;;;;;;;3.37;87.50;98208.63;4249246;83;21425;-89
2022/01/06 10:07:41;;;;;;;9.45;4.05;;;;;;;3.57;87.88;98208.20;4237505;83;21050;-89
2022/01/06 10:13:47;;;;;;;9.00;4.40;;;;;;;3.74;87.33;98209.20;4211596;83;21098;-92
2022/01/06 10:19:51;;;;;;;10.40;4.12;;;;;;;3.85;86.53;98201.58;4211764;83;21654;-93
2022/01/06 10:25:55;;;;;;;10.50;3.70;;;;;;;3.82;86.74;98218.49;4219553;83;21125;-91
2022/01/06 10:32:08;;;;;;;11.35;4.03;;;;;;;3.85;87.10;98221.09;4205888;83;21721;-92
2022/01/06 10:38:12;;;;;;;11.48;4.42;;;;;;;4.04;86.74;98210.34;4209497;83;21046;-91
2022/01/06 10:44:15;;;;;;;9.20;4.12;;;;;;;4.44;86.58;98211.69;4192695;83;21143;-92
2022/01/06 10:50:33;;;;;;;6.95;3.12;;;;;;;4.27;85.44;98220.75;4224864;83;21055;-95
2022/01/06 10:56:36;;;;;;;6.20;3.40;;;;;;;3.80;85.88;98248.41;4225722;83;21643;-92
2022/01/06 11:02:37;;;;;;;6.53;3.72;;;;;;;3.37;85.84;98247.86;4215144;83;21311;-94
2022/01/06 11:08:41;;;;;;;8.98;4.33;;;;;;;3.21;86.00;98253.81;4239844;82;21146;-91
2022/01/06 11:14:45;;;;;;;10.75;5.00;;;;;;;3.14;86.60;98269.83;4237549;83;21032;-92
2022/01/06 11:20:47;;;;;;;10.53;4.45;;;;;;;3.09;86.73;98273.56;4238534;83;21107;-92
2022/01/06 11:27:12;;;;;;;9.03;4.95;;;;;;;2.94;86.59;98281.02;4220044;83;21051;-93
2022/01/06 11:33:15;;;;;;;12.65;5.78;;;;;;;2.84;86.90;98290.17;4230030;83;22231;-91
2022/01/06 11:39:34;;;;;;;7.28;3.40;;;;;;;2.80;87.36;98308.22;4252296;83;21142;-92
2022/01/06 11:45:55;;;;;;;6.75;2.95;;;;;;;2.83;86.83;98309.69;4245959;83;21078;-93
2022/01/06 11:52:15;;;;;;;7.83;2.58;;;;;;;2.84;85.88;98325.31;4244295;83;21637;-92
2022/01/06 11:58:21;;;;;;;5.85;2.90;;;;;;;2.63;84.94;98330.09;4204384;83;21713;-92
2022/01/06 12:04:26;;;;;;;11.90;5.83;;;;;;;2.53;84.63;98348.89;4236908;83;21593;-92
2022/01/06 12:10:48;;;;;;;16.48;6.85;;;;;;;2.47;84.47;98354.84;4197209;82;21346;-94
2022/01/06 12:16:53;;;;;;;13.70;7.70;;;;;;;2.50;84.84;98367.67;4147640;85;21090;-91
2022/01/06 12:22:57;;;;;;;9.30;3.77;;;;;;;2.51;84.92;98377.34;4106696;85;21074;-91
2022/01/06 12:29:20;;;;;;;11.12;4.92;;;;;;;2.50;84.30;98375.23;4136244;85;21070;-92
2022/01/06 12:35:42;;;;;;;7.60;3.55;;;;;;;2.47;83.84;98378.61;4128394;83;21646;-92
2022/01/06 12:41:52;;;;;;;10.00;3.47;;;;;;;2.38;83.37;98399.51;4144790;85;21083;-91
2022/01/06 12:48:12;;;;;;;6.95;2.90;;;;;;;2.34;82.87;98408.06;4106380;85;21031;-92
2022/01/06 12:54:26;;;;;;;3.92;2.15;;;;;;;2.24;82.17;98410.42;4128323;85;21066;-92
2022/01/06 13:01:01;;;;;;;6.05;2.70;;;;;;;2.05;81.01;98433.08;4136375;85;21087;-92
2022/01/06 13:07:11;;;;;;;8.08;3.25;;;;;;;1.91;81.52;98456.30;4108566;85;21687;-91
2022/01/06 13:13:13;;;;;;;4.92;2.50;;;;;;;1.86;81.11;98472.72;4161144;84;21050;-89
2022/01/06 13:19:16;;;;;;;6.58;2.70;;;;;;;1.83;81.47;98492.27;4166818;84;21086;-90
2022/01/06 13:25:33;;;;;;;13.53;5.22;;;;;;;1.84;80.98;98511.94;4161916;84;21073;-90
2022/01/06 13:31:35;;;;;;;7.92;3.98;;;;;;;1.79;80.85;98522.91;4165308;84;21444;-92
2022/01/06 13:37:42;;;;;;;9.28;3.47;;;;;;;1.77;81.00;98546.77;4180037;84;21058;-90
2022/01/06 13:43:43;;;;;;;8.30;2.95;;;;;;;1.70;79.26;98562.12;4180789;83;21112;-89
2022/01/06 13:56:22;;;;;;;8.05;2.90;;;;;;;1.28;76.74;98598.20;4176777;83;21081;-91
2022/01/06 14:02:23;;;;;;;6.03;2.75;;;;;;;1.12;76.54;98615.47;4165472;84;21379;-91
2022/01/06 14:08:25;;;;;;;6.30;2.80;;;;;;;1.02;77.10;98641.41;4184022;83;21050;-90
2022/01/06 14:14:27;;;;;;;6.70;2.25;;;;;;;0.99;76.55;98653.38;4231070;83;21079;-90
2022/01/06 14:20:28;;;;;;;5.10;2.10;;;;;;;0.88;75.74;98685.82;4194627;83;21082;-91
2022/01/06 14:26:30;;;;;;;5.47;2.58;;;;;;;0.67;75.39;98710.49;4169744;84;21744;-90
2022/01/06 14:32:32;;;;;;;4.95;2.40;;;;;;;0.47;74.10;98731.32;4167270;84;21342;-90
2022/01/06 14:38:34;;;;;;;9.48;2.75;;;;;;;0.32;74.48;98741.17;4163687;84;21074;-90
2022/01/06 14:44:36;;;;;;;8.10;3.52;;;;;;;0.23;74.20;98756.52;4176776;84;21069;-90
2022/01/06 14:50:38;;;;;;;10.45;4.55;;;;;;;0.16;74.58;98776.39;4174788;84;21098;-91
2022/01/06 14:56:40;;;;;;;12.37;3.70;;;;;;;0.08;74.39;98778.50;4171679;84;21967;-91
2022/01/06 15:02:48;;;;;;;11.38;4.20;;;;;;;-0.08;73.78;98788.31;4161565;84;21046;-91
2022/01/06 15:08:50;;;;;;;12.20;3.77;;;;;;;-0.21;74.34;98798.64;4174453;84;21014;-90
2022/01/06 15:14:52;;;;;;;9.75;2.95;;;;;;;-0.31;74.52;98806.16;4154221;83;21660;-91
2022/01/06 15:20:55;;;;;;;7.92;2.62;;;;;;;-0.42;74.43;98822.31;4170766;84;21038;-90
2022/01/06 15:27:05;;;;;;;5.65;2.20;;;;;;;-0.55;74.65;98833.38;4170772;84;20998;-91
2022/01/06 15:33:08;;;;;;;6.33;2.60;;;;;;;-0.60;74.50;98842.94;4171503;84;21068;-90
2022/01/06 15:39:10;;;;;;;11.80;3.40;;;;;;;-0.66;73.86;98849.52;4165917;84;21057;-91
2022/01/06 15:45:11;;;;;;;13.88;3.25;;;;;;;-0.71;74.18;98871.16;4165124;84;21101;-91
2022/01/06 15:51:14;;;;;;;9.10;3.15;;;;;;;-0.78;74.49;98874.80;4161260;84;21038;-92
2022/01/06 15:57:42;;;;;;;9.90;2.87;;;;;;;-0.82;74.54;98883.78;4167063;84;21047;-92
2022/01/06 16:10:10;;;;;;;8.55;2.92;;;;;;;-0.78;74.13;98893.63;4178132;84;22045;-91
2022/01/06 16:16:23;;;;;;;9.50;2.77;;;;;;;-0.82;74.05;98903.94;4162428;84;21073;-91
2022/01/06 16:22:36;;;;;;;10.00;3.42;;;;;;;-0.77;73.48;98907.33;4153298;84;21502;-90
2022/01/06 16:28:39;;;;;;;13.32;3.92;;;;;;;-0.73;73.14;98922.27;4151191;84;21089;-91
2022/01/06 16:34:40;;;;;;;10.45;4.10;;;;;;;-0.68;74.01;98935.61;4190670;84;21078;-91
2022/01/06 16:54:32;;;;;;;14.73;5.03;;;;;;;-0.98;75.46;98972.00;4096380;85;21566;-91
2022/01/06 17:00:41;;;;;;;10.30;4.23;;;;;;;-1.08;76.15;98978.91;4064335;86;21038;-91
2022/01/06 17:06:43;;;;;;;12.97;4.70;;;;;;;-1.13;77.08;98972.31;4047469;86;21133;-91
2022/01/06 17:12:45;;;;;;;13.90;4.10;;;;;;;-1.16;77.50;98968.08;4052434;86;21230;-92
2022/01/06 17:18:48;;;;;;;12.50;4.07;;;;;;;-1.23;77.17;98976.53;3991830;88;21062;-91
2022/01/06 17:24:55;;;;;;;10.57;4.27;;;;;;;-1.27;77.55;98991.66;3972050;88;21059;-92
2022/01/06 17:30:57;;;;;;;;;;;;;;;-1.26;77.94;98985.73;3993168;87;21132;-92
2022/01/06 17:37:01;;;;;;;11.77;3.70;;;;;;;-1.21;78.53;98999.88;3986137;88;20207;-93
2022/01/06 17:43:04;;;;;;;14.10;4.67;;;;;;;-1.20;78.11;99014.88;3935781;88;21936;-93
2022/01/06 17:49:16;;;;;;;12.83;4.53;;;;;;;-1.16;78.56;99017.78;3935494;89;21027;-93
2022/01/06 17:55:19;;;;;;;17.48;5.20;;;;;;;-1.15;78.49;99030.10;4072936;86;21979;-93
2022/01/06 18:01:38;;;;;;;13.80;5.60;;;;;;;-1.17;78.88;99042.48;4078534;86;21062;-92
2022/01/06 18:07:54;;;;;;;18.77;8.27;;;;;;;-1.17;79.07;99047.05;4081676;86;21078;-92
2022/01/06 18:13:56;;;;;;;18.00;8.10;;;;;;;-1.15;79.50;99062.34;4117051;84;21070;-93
2022/01/06 18:19:57;;;;;;;20.87;8.03;;;;;;;-1.13;79.43;99070.91;4083931;86;21637;-92
2022/01/06 18:26:04;;;;;;;17.10;6.90;;;;;;;-1.12;79.49;99083.23;4089803;86;21069;-91
2022/01/06 18:32:09;;;;;;;18.65;7.22;;;;;;;-1.12;79.51;99081.35;4188277;83;21554;-92
2022/01/06 18:38:34;;;;;;;23.55;8.40;;;;;;;-1.12;79.52;99098.81;4173440;83;21960;-92
2022/01/06 18:44:37;;;;;;;15.03;6.10;;;;;;;-1.10;79.64;99103.36;4190702;84;21031;-92
2022/01/06 18:50:46;;;;;;;14.27;6.43;;;;;;;-1.05;79.65;99113.20;4158138;84;21055;-92
2022/01/06 18:56:52;;;;;;;11.73;4.03;;;;;;;-1.08;79.16;99119.17;4180321;84;21528;-92
2022/01/06 19:03:00;;;;;;;14.93;5.10;;;;;;;-1.14;79.01;99138.59;4166594;84;21019;-93
2022/01/06 19:09:04;;;;;;;14.57;5.23;;;;;;;-1.19;79.08;99141.94;4180831;83;21078;-91
2022/01/06 19:15:18;;;;;;;18.52;5.53;;;;;;;-1.22;79.24;99148.67;4164971;84;21184;-92
2022/01/06 19:21:23;;;;;;;13.60;5.70;;;;;;;-1.18;79.22;99165.00;4141059;83;21055;-93
2022/01/06 19:27:55;;;;;;;12.43;5.50;;;;;;;-1.22;79.06;99170.16;4155105;84;20998;-93
2022/01/06 19:34:14;;;;;;;11.63;5.80;;;;;;;-1.21;79.17;99171.78;4140862;84;21534;-91
2022/01/06 19:40:27;;;;;;;14.63;5.87;;;;;;;-1.22;78.92;99192.22;4156486;84;21778;-91
2022/01/06 19:46:49;;;;;;;15.27;5.80;;;;;;;-1.20;78.91;99196.20;4120875;84;22085;-93
2022/01/06 19:53:09;;;;;;;13.60;5.63;;;;;;;-1.13;78.94;99206.56;4132750;84;21001;-91
2022/01/06 19:59:27;;;;;;;9.40;4.00;;;;;;;-1.11;78.85;99219.95;4125796;84;21094;-92
2022/01/06 20:12:16;;;;;;;13.80;6.07;;;;;;;-1.14;78.35;99219.20;4094352;84;21136;-91
2022/01/06 20:18:35;;;;;;;17.07;6.33;;;;;;;-1.25;78.39;99218.33;4080316;85;21418;-90
2022/01/06 20:24:42;;;;;;;20.73;6.90;;;;;;;-1.37;78.63;99228.69;4079021;86;21030;-91
2022/01/06 20:30:46;;;;;;;22.93;8.13;;;;;;;-1.48;78.93;99232.08;4079714;85;21354;-90
2022/01/06 20:36:55;;;;;;;20.67;6.90;;;;;;;-1.51;79.26;99239.91;4079608;85;22134;-90
2022/01/06 20:43:01;;;;;;;24.27;8.47;;;;;;;-1.48;79.40;99248.72;4082977;85;21114;-91
2022/01/06 20:55:30;;;;;;;15.37;6.70;;;;;;;-1.48;79.24;99258.93;4082580;85;21743;-89
2022/01/06 21:01:32;;;;;;;16.40;6.00;;;;;;;-1.53;79.10;99264.36;4080087;85;21085;-90
2022/01/06 21:07:36;;;;;;;20.60;7.17;;;;;;;-1.65;78.80;99270.17;4082373;85;21050;-91
2022/01/06 21:13:41;;;;;;;16.80;6.33;;;;;;;-1.75;78.60;99293.11;4065006;83;21078;-89
2022/01/06 21:19:44;;;;;;;12.07;6.20;;;;;;;-1.85;78.37;99308.55;4128404;85;21050;-89
2022/01/06 21:25:50;;;;;;;15.63;6.00;;;;;;;-1.93;78.34;99326.08;4145814;85;21073;-90
2022/01/06 21:31:57;;;;;;;12.17;4.60;;;;;;;-1.98;78.22;99338.20;4131351;85;21518;-90
2022/01/06 21:38:01;;;;;;;15.37;5.97;;;;;;;-1.99;78.14;99342.51;4118027;85;21516;-92
2022/01/06 21:44:04;;;;;;;10.60;5.20;;;;;;;-1.99;78.07;99352.67;4116951;84;21570;-89
2022/01/06 21:50:09;;;;;;;15.03;5.80;;;;;;;-2.10;77.98;99365.16;4115229;85;21074;-90
2022/01/06 21:56:19;;;;;;;8.67;3.60;;;;;;;-2.20;77.82;99367.39;4138195;85;21082;-91
2022/01/06 22:02:29;;;;;;;15.13;4.93;;;;;;;-2.25;77.72;99374.67;4125723;85;21006;-91
2022/01/06 22:08:35;;;;;;;15.80;5.40;;;;;;;-2.31;77.78;99386.53;4125714;85;21074;-90
2022/01/06 22:14:36;;;;;;;;;;;;;;;-2.39;77.71;99386.59;4129552;84;21079;-89
2022/01/06 22:20:37;;;;;;;14.40;5.73;;;;;;;-2.42;77.73;99393.05;4132036;85;20158;-91
2022/01/06 22:26:48;;;;;;;14.03;5.57;;;;;;;-2.50;77.91;99398.48;4138311;85;21187;-91
2022/01/06 22:33:01;;;;;;;17.07;6.30;;;;;;;-2.57;77.94;99404.72;4141832;85;21055;-91
2022/01/06 22:39:04;;;;;;;17.87;5.70;;;;;;;-2.63;78.03;99415.19;4136077;85;21621;-91
2022/01/06 22:45:07;;;;;;;11.40;4.90;;;;;;;-2.67;78.14;99425.41;4117427;84;21632;-90
2022/01/06 22:51:30;;;;;;;14.63;5.27;;;;;;;-2.71;78.44;99439.12;4133530;85;21008;-91
2022/01/06 22:57:34;;;;;;;17.67;6.53;;;;;;;-2.76;78.75;99447.98;4131177;85;21030;-91
2022/01/06 23:03:47;;;;;;;15.57;6.27;;;;;;;-2.81;78.93;99455.23;4137112;85;21034;-90
2022/01/06 23:09:49;;;;;;;16.20;6.87;;;;;;;-2.85;78.64;99463.58;4142400;85;21079;-91
2022/01/06 23:15:50;;;;;;;20.30;7.47;;;;;;;-2.91;79.09;99468.70;4133746;84;21052;-92
2022/01/06 23:21:53;;;;;;;19.43;7.20;;;;;;;-2.95;78.87;99477.02;4142305;85;21585;-92
2022/01/06 23:27:59;;;;;;;14.87;5.87;;;;;;;-2.99;78.78;99487.47;4117177;85;21055;-90
2022/01/06 23:34:28;;;;;;;19.83;6.60;;;;;;;-3.00;78.53;99493.92;4133185;85;21055;-92
2022/01/06 23:40:44;;;;;;;20.73;7.03;;;;;;;-3.07;78.79;99503.33;4113320;85;21110;-90
2022/01/06 23:46:46;;;;;;;27.17;7.87;;;;;;;-3.11;79.07;99499.05;4113625;85;21126;-93
2022/01/06 23:52:59;;;;;;;20.07;8.10;;;;;;;-3.19;78.88;99510.32;4088003;85;21161;-93
2022/01/06 23:59:08;;;;;;;27.50;9.33;;;;;;;-3.29;79.46;99525.09;4127944;85;21035;-91
